»·PEaware :: N19947 KCRQ-KSBP

N19947 :: KCRQ-KSBP

FLIGHT INFORMATION

Flight Status: Arrived
Operator: Privately registered:
United States
More flights under this callsign
Pilot: Adam A. (5112)
Aircraft: BOEING 767-300
(B763)
More flights by this aircraft type
Origin: KCRQ McClellan-Palomar
United States
Destination: KSBP San Luis Co Regl
United States
More flights between these airports :: More routes between these airports
Route: +SXC V27 VTU V25 RZS MQO
File this flight plan on PilotEdge
Remarks:
Altitude:
(Current/Filed)
24,000ft
Speed:
(Current/Filed)
440kts
Departed: 26-Feb-16 05:20 PM
Arrived: 26-Feb-16 06:22 PM
Distance/Time
Traveled:
209nm/1:01
Distance/Time
To Go:
Arrived

Flight Plot

Page will automatically refresh every two minutes.


Map Options




Map Legend


Flown Route
Filed Route
Departure Airport
Arrival Airport
Navaid (VOR, NDB)
Fix

Horizontal Profiles

Position Reports

Time Latitude Longitude Heading Altitude Ground
Speed
26-Feb-16 16:40 33.126761 -117.280768 78 342ft 0kts
26-Feb-16 16:41 33.126761 -117.280768 78 342ft 0kts
26-Feb-16 16:42 33.126761 -117.280768 78 342ft 0kts
26-Feb-16 16:43 33.126761 -117.280768 78 342ft 0kts
26-Feb-16 16:44 33.126761 -117.280768 78 342ft 0kts
26-Feb-16 16:45 33.126761 -117.280768 78 342ft 0kts
26-Feb-16 16:46 33.126761 -117.280768 78 342ft 0kts
26-Feb-16 16:47 33.126761 -117.280768 78 342ft 0kts
26-Feb-16 16:48 33.126761 -117.280768 78 342ft 0kts
26-Feb-16 16:49 33.126761 -117.280768 78 342ft 0kts
26-Feb-16 16:50 33.126761 -117.280768 78 342ft 0kts
26-Feb-16 16:51 33.126761 -117.280768 78 342ft 0kts
26-Feb-16 16:52 33.126761 -117.280768 78 342ft 0kts
26-Feb-16 16:53 33.126761 -117.280768 78 342ft 0kts
26-Feb-16 16:54 33.126761 -117.280768 78 342ft 0kts
26-Feb-16 16:55 33.126761 -117.280768 78 342ft 0kts
26-Feb-16 16:56 33.126761 -117.280768 78 342ft 0kts
26-Feb-16 16:57 33.126761 -117.280768 78 342ft 0kts
26-Feb-16 16:58 33.126761 -117.280768 78 342ft 0kts
26-Feb-16 16:59 33.126761 -117.280768 78 342ft 0kts
26-Feb-16 17:00 33.126761 -117.280768 78 342ft 0kts
26-Feb-16 17:01 33.126761 -117.280768 78 342ft 0kts
26-Feb-16 17:02 33.126761 -117.280768 78 342ft 0kts
26-Feb-16 17:03 33.126761 -117.280768 78 342ft 0kts
26-Feb-16 17:04 33.126761 -117.280768 78 342ft 0kts
26-Feb-16 17:05 33.126761 -117.280768 78 342ft 0kts
26-Feb-16 17:06 33.126761 -117.280768 78 342ft 0kts
26-Feb-16 17:07 33.126761 -117.280768 78 342ft 0kts
26-Feb-16 17:08 33.126764 -117.280751 78 342ft 1kts
26-Feb-16 17:09 33.127644 -117.278709 78 342ft 14kts
26-Feb-16 17:10 33.128449 -117.273565 91 342ft 16kts
26-Feb-16 17:11 33.129421 -117.272812 262 342ft 9kts
26-Feb-16 17:12 33.129502 -117.272367 258 342ft 0kts
26-Feb-16 17:13 33.124278 -117.304734 260 1927ft 174kts
26-Feb-16 17:14 33.135006 -117.373040 284 3064ft 237kts
26-Feb-16 17:15 33.138378 -117.451387 267 3258ft 237kts
26-Feb-16 17:16 33.133321 -117.529518 264 2893ft 236kts
26-Feb-16 17:17 33.125913 -117.607560 261 2990ft 235kts
26-Feb-16 17:18 33.116774 -117.684913 261 2999ft 236kts
26-Feb-16 17:19 33.146343 -117.756586 311 5745ft 266kts
26-Feb-16 17:20 33.196594 -117.821001 311 7991ft 272kts
26-Feb-16 17:21 33.245577 -117.883337 311 8005ft 272kts
26-Feb-16 17:22 33.273015 -117.968644 283 11198ft 313kts
26-Feb-16 17:23 33.296760 -118.076269 285 14913ft 352kts
26-Feb-16 17:24 33.321949 -118.185507 285 15038ft 355kts
26-Feb-16 17:25 33.347897 -118.299551 284 16157ft 367kts
26-Feb-16 17:26 33.380428 -118.415402 304 20213ft 381kts
26-Feb-16 17:27 33.461572 -118.492472 323 23389ft 402kts
26-Feb-16 17:28 33.554841 -118.570429 322 24177ft 433kts
26-Feb-16 17:29 33.654006 -118.654773 322 24143ft 442kts
26-Feb-16 17:30 33.756491 -118.742918 322 24127ft 471kts
26-Feb-16 17:31 33.861436 -118.832400 322 24109ft 467kts
26-Feb-16 17:32 33.965571 -118.921511 321 24117ft 467kts
26-Feb-16 17:33 34.067839 -119.009300 321 24123ft 468kts
26-Feb-16 17:34 34.151562 -119.117962 301 24128ft 460kts
26-Feb-16 17:35 34.221823 -119.243230 300 24121ft 459kts
26-Feb-16 17:36 34.291300 -119.369827 300 23770ft 460kts
26-Feb-16 17:37 34.355139 -119.486639 300 22934ft 391kts
26-Feb-16 17:38 34.410407 -119.588315 300 21190ft 361kts
26-Feb-16 17:39 34.464482 -119.687961 300 19723ft 351kts
26-Feb-16 17:40 34.519972 -119.784613 309 19720ft 356kts
26-Feb-16 17:41 34.571225 -119.882743 299 19721ft 352kts
26-Feb-16 17:42 34.633209 -119.968986 314 19041ft 336kts
26-Feb-16 17:43 34.700050 -120.043206 314 17129ft 329kts
26-Feb-16 17:44 34.756082 -120.127977 305 15975ft 334kts
26-Feb-16 17:45 34.820672 -120.205273 314 13953ft 331kts
26-Feb-16 17:46 34.882096 -120.281128 303 12073ft 321kts
26-Feb-16 17:47 34.932435 -120.364671 303 10297ft 310kts
26-Feb-16 17:48 34.976373 -120.442202 303 9752ft 269kts
26-Feb-16 17:49 35.018468 -120.516623 303 8994ft 268kts
26-Feb-16 17:50 35.060023 -120.590219 303 8994ft 266kts
26-Feb-16 17:51 35.101449 -120.663441 303 8997ft 265kts
26-Feb-16 17:52 35.142908 -120.736623 303 8999ft 265kts
26-Feb-16 17:53 35.184188 -120.809390 303 8965ft 251kts
26-Feb-16 17:54 35.224513 -120.875995 308 7804ft 244kts
26-Feb-16 17:55 35.266536 -120.937521 308 6572ft 239kts
26-Feb-16 17:56 35.308169 -120.998859 308 6002ft 237kts
26-Feb-16 17:57 35.350064 -121.060653 308 5998ft 237kts
26-Feb-16 17:58 35.402069 -121.088632 28 5600ft 230kts
26-Feb-16 17:59 35.441554 -121.054164 33 4724ft 229kts
26-Feb-16 18:00 35.493040 -121.009527 32 3945ft 213kts
26-Feb-16 18:01 35.539049 -120.969990 32 3963ft 199kts
26-Feb-16 18:02 35.583156 -120.932107 32 3962ft 199kts
26-Feb-16 18:03 35.621607 -120.899005 32 4469ft 213kts
26-Feb-16 18:04 35.663571 -120.853285 80 4450ft 208kts
26-Feb-16 18:05 35.627502 -120.816280 172 4478ft 196kts
26-Feb-16 18:06 35.574278 -120.812390 192 4469ft 192kts
26-Feb-16 18:07 35.521562 -120.823259 192 4462ft 192kts
26-Feb-16 18:08 35.469606 -120.833881 192 4014ft 190kts
26-Feb-16 18:09 35.418904 -120.844143 192 3984ft 193kts
26-Feb-16 18:10 35.366929 -120.836965 152 4009ft 201kts
26-Feb-16 18:11 35.325799 -120.794287 126 3736ft 189kts
26-Feb-16 18:12 35.295610 -120.742334 125 2422ft 190kts
26-Feb-16 18:13 35.265028 -120.689065 124 1080ft 188kts
26-Feb-16 18:14 35.239048 -120.643982 124 223ft 120kts
26-Feb-16 18:15 35.233096 -120.632526 50 222ft 18kts
26-Feb-16 18:16 35.233565 -120.632493 308 223ft 0kts
26-Feb-16 18:17 35.236244 -120.637183 305 222ft 20kts
26-Feb-16 18:18 35.238733 -120.641638 328 222ft 9kts

Navigation Log

Ident Type
Flight plan parsing failed, navigation log unavailable